sensor_id;sensor_type;location;lat;lon;timestamp;P1;durP1;ratioP1;P2;durP2;ratioP2
12459;SDS011;6295;49.452;8.466;2022-10-03T00:00:07;3.50;;;3.20;;
12459;SDS011;6295;49.452;8.466;2022-10-03T00:04:15;3.40;;;3.10;;
12459;SDS011;6295;49.452;8.466;2022-10-03T00:08:32;3.90;;;3.50;;
12459;SDS011;6295;49.452;8.466;2022-10-03T00:13:05;3.60;;;3.30;;
12459;SDS011;6295;49.452;8.466;2022-10-03T00:17:20;3.70;;;3.40;;
12459;SDS011;6295;49.452;8.466;2022-10-03T00:21:29;4.00;;;3.70;;
12459;SDS011;6295;49.452;8.466;2022-10-03T00:25:37;3.50;;;3.20;;
12459;SDS011;6295;49.452;8.466;2022-10-03T00:29:51;5.17;;;3.20;;
12459;SDS011;6295;49.452;8.466;2022-10-03T00:34:04;4.00;;;3.57;;
12459;SDS011;6295;49.452;8.466;2022-10-03T00:38:18;3.30;;;3.00;;
12459;SDS011;6295;49.452;8.466;2022-10-03T00:47:15;3.83;;;3.20;;
12459;SDS011;6295;49.452;8.466;2022-10-03T00:51:41;3.30;;;3.00;;
12459;SDS011;6295;49.452;8.466;2022-10-03T00:55:56;3.47;;;3.17;;
12459;SDS011;6295;49.452;8.466;2022-10-03T01:00:15;3.27;;;2.97;;
12459;SDS011;6295;49.452;8.466;2022-10-03T01:04:37;4.20;;;3.13;;
12459;SDS011;6295;49.452;8.466;2022-10-03T01:08:54;4.30;;;3.07;;
12459;SDS011;6295;49.452;8.466;2022-10-03T01:13:20;3.40;;;2.93;;
12459;SDS011;6295;49.452;8.466;2022-10-03T01:17:34;3.90;;;3.10;;
12459;SDS011;6295;49.452;8.466;2022-10-03T01:21:49;3.50;;;3.20;;
12459;SDS011;6295;49.452;8.466;2022-10-03T01:26:06;3.70;;;3.40;;
12459;SDS011;6295;49.452;8.466;2022-10-03T01:30:27;4.67;;;3.50;;
12459;SDS011;6295;49.452;8.466;2022-10-03T01:34:39;3.87;;;3.30;;
12459;SDS011;6295;49.452;8.466;2022-10-03T01:38:46;3.37;;;3.03;;
12459;SDS011;6295;49.452;8.466;2022-10-03T01:42:57;5.60;;;3.87;;
12459;SDS011;6295;49.452;8.466;2022-10-03T01:47:16;4.87;;;3.67;;
12459;SDS011;6295;49.452;8.466;2022-10-03T01:51:27;4.73;;;4.20;;
12459;SDS011;6295;49.452;8.466;2022-10-03T01:55:37;4.13;;;3.73;;
12459;SDS011;6295;49.452;8.466;2022-10-03T01:59:52;3.60;;;3.30;;
12459;SDS011;6295;49.452;8.466;2022-10-03T02:03:59;3.60;;;3.30;;
12459;SDS011;6295;49.452;8.466;2022-10-03T02:08:06;3.17;;;2.90;;
12459;SDS011;6295;49.452;8.466;2022-10-03T02:12:22;3.37;;;3.07;;
12459;SDS011;6295;49.452;8.466;2022-10-03T02:16:31;4.00;;;3.63;;
12459;SDS011;6295;49.452;8.466;2022-10-03T02:20:44;4.30;;;3.60;;
12459;SDS011;6295;49.452;8.466;2022-10-03T02:24:51;3.77;;;3.47;;
12459;SDS011;6295;49.452;8.466;2022-10-03T02:29:11;3.90;;;3.50;;
12459;SDS011;6295;49.452;8.466;2022-10-03T02:33:51;3.40;;;3.10;;
12459;SDS011;6295;49.452;8.466;2022-10-03T02:38:16;3.83;;;3.40;;
12459;SDS011;6295;49.452;8.466;2022-10-03T02:42:46;4.07;;;3.17;;
12459;SDS011;6295;49.452;8.466;2022-10-03T02:47:23;3.53;;;3.23;;
12459;SDS011;6295;49.452;8.466;2022-10-03T02:51:56;3.43;;;3.13;;
12459;SDS011;6295;49.452;8.466;2022-10-03T03:10:17;4.47;;;4.00;;
12459;SDS011;6295;49.452;8.466;2022-10-03T03:19:17;4.23;;;3.83;;
12459;SDS011;6295;49.452;8.466;2022-10-03T03:23:51;4.13;;;3.60;;
12459;SDS011;6295;49.452;8.466;2022-10-03T03:28:20;5.23;;;3.43;;
12459;SDS011;6295;49.452;8.466;2022-10-03T03:32:43;4.10;;;3.37;;
12459;SDS011;6295;49.452;8.466;2022-10-03T03:37:01;3.50;;;3.17;;
12459;SDS011;6295;49.452;8.466;2022-10-03T03:41:13;3.30;;;3.00;;
12459;SDS011;6295;49.452;8.466;2022-10-03T03:45:32;4.00;;;3.60;;
12459;SDS011;6295;49.452;8.466;2022-10-03T03:49:55;4.57;;;4.10;;
12459;SDS011;6295;49.452;8.466;2022-10-03T03:54:29;4.30;;;3.90;;
12459;SDS011;6295;49.452;8.466;2022-10-03T03:58:37;5.17;;;4.47;;
12459;SDS011;6295;49.452;8.466;2022-10-03T04:07:21;6.43;;;4.83;;
12459;SDS011;6295;49.452;8.466;2022-10-03T04:11:37;6.30;;;4.47;;
12459;SDS011;6295;49.452;8.466;2022-10-03T04:15:54;4.77;;;4.30;;
12459;SDS011;6295;49.452;8.466;2022-10-03T04:20:09;4.70;;;4.20;;
12459;SDS011;6295;49.452;8.466;2022-10-03T04:24:27;4.07;;;3.67;;
12459;SDS011;6295;49.452;8.466;2022-10-03T04:28:46;4.07;;;3.67;;
12459;SDS011;6295;49.452;8.466;2022-10-03T04:33:03;3.73;;;3.43;;
12459;SDS011;6295;49.452;8.466;2022-10-03T04:37:27;3.43;;;3.13;;
12459;SDS011;6295;49.452;8.466;2022-10-03T04:41:41;2.80;;;2.53;;
12459;SDS011;6295;49.452;8.466;2022-10-03T04:46:03;3.50;;;3.13;;
12459;SDS011;6295;49.452;8.466;2022-10-03T04:50:24;4.10;;;3.70;;
12459;SDS011;6295;49.452;8.466;2022-10-03T04:54:38;3.97;;;3.50;;
12459;SDS011;6295;49.452;8.466;2022-10-03T04:58:49;4.27;;;3.87;;
12459;SDS011;6295;49.452;8.466;2022-10-03T05:03:00;4.27;;;3.87;;
12459;SDS011;6295;49.452;8.466;2022-10-03T05:07:10;6.73;;;3.90;;
12459;SDS011;6295;49.452;8.466;2022-10-03T05:11:18;4.77;;;3.83;;
12459;SDS011;6295;49.452;8.466;2022-10-03T05:15:23;4.07;;;3.67;;
12459;SDS011;6295;49.452;8.466;2022-10-03T05:19:40;4.80;;;3.93;;
12459;SDS011;6295;49.452;8.466;2022-10-03T05:23:51;4.73;;;4.23;;
12459;SDS011;6295;49.452;8.466;2022-10-03T05:28:04;4.23;;;3.63;;
12459;SDS011;6295;49.452;8.466;2022-10-03T05:32:18;3.57;;;3.27;;
12459;SDS011;6295;49.452;8.466;2022-10-03T05:36:28;4.90;;;3.57;;
12459;SDS011;6295;49.452;8.466;2022-10-03T05:40:35;5.20;;;4.00;;
12459;SDS011;6295;49.452;8.466;2022-10-03T05:44:41;4.70;;;4.17;;
12459;SDS011;6295;49.452;8.466;2022-10-03T05:48:46;5.83;;;4.90;;
12459;SDS011;6295;49.452;8.466;2022-10-03T05:53:00;6.40;;;4.53;;
12459;SDS011;6295;49.452;8.466;2022-10-03T05:57:25;5.43;;;4.93;;
12459;SDS011;6295;49.452;8.466;2022-10-03T06:01:37;5.00;;;4.50;;
12459;SDS011;6295;49.452;8.466;2022-10-03T06:06:06;7.23;;;4.40;;
12459;SDS011;6295;49.452;8.466;2022-10-03T06:10:22;6.43;;;5.07;;
12459;SDS011;6295;49.452;8.466;2022-10-03T06:19:22;8.97;;;6.40;;
12459;SDS011;6295;49.452;8.466;2022-10-03T06:23:43;8.20;;;6.30;;
12459;SDS011;6295;49.452;8.466;2022-10-03T06:32:41;8.63;;;7.30;;
12459;SDS011;6295;49.452;8.466;2022-10-03T06:42:07;7.87;;;6.50;;
12459;SDS011;6295;49.452;8.466;2022-10-03T06:46:39;7.50;;;5.63;;
12459;SDS011;6295;49.452;8.466;2022-10-03T06:50:51;6.77;;;5.37;;
12459;SDS011;6295;49.452;8.466;2022-10-03T06:55:12;6.63;;;5.90;;
12459;SDS011;6295;49.452;8.466;2022-10-03T06:59:38;6.47;;;5.63;;
12459;SDS011;6295;49.452;8.466;2022-10-03T07:13:26;5.93;;;5.17;;
12459;SDS011;6295;49.452;8.466;2022-10-03T07:17:57;7.50;;;6.07;;
12459;SDS011;6295;49.452;8.466;2022-10-03T07:22:48;7.27;;;5.87;;
12459;SDS011;6295;49.452;8.466;2022-10-03T07:27:23;6.00;;;5.40;;
12459;SDS011;6295;49.452;8.466;2022-10-03T07:36:49;5.27;;;4.20;;
12459;SDS011;6295;49.452;8.466;2022-10-03T07:41:42;3.87;;;3.47;;
12459;SDS011;6295;49.452;8.466;2022-10-03T07:59:52;8.73;;;7.00;;
12459;SDS011;6295;49.452;8.466;2022-10-03T08:04:31;9.53;;;7.90;;
12459;SDS011;6295;49.452;8.466;2022-10-03T08:13:30;13.40;;;10.00;;
12459;SDS011;6295;49.452;8.466;2022-10-03T08:17:51;14.40;;;10.50;;
12459;SDS011;6295;49.452;8.466;2022-10-03T08:22:13;10.37;;;8.40;;
12459;SDS011;6295;49.452;8.466;2022-10-03T08:26:23;18.33;;;12.93;;
12459;SDS011;6295;49.452;8.466;2022-10-03T08:30:29;14.40;;;11.17;;
12459;SDS011;6295;49.452;8.466;2022-10-03T08:35:03;12.40;;;10.80;;
12459;SDS011;6295;49.452;8.466;2022-10-03T08:39:45;15.70;;;11.70;;
12459;SDS011;6295;49.452;8.466;2022-10-03T08:53:01;12.30;;;9.87;;
12459;SDS011;6295;49.452;8.466;2022-10-03T08:57:31;10.80;;;8.70;;
12459;SDS011;6295;49.452;8.466;2022-10-03T09:07:04;15.33;;;12.00;;
12459;SDS011;6295;49.452;8.466;2022-10-03T09:11:21;15.10;;;12.80;;
12459;SDS011;6295;49.452;8.466;2022-10-03T09:16:13;17.27;;;12.30;;
12459;SDS011;6295;49.452;8.466;2022-10-03T09:20:48;15.97;;;13.87;;
12459;SDS011;6295;49.452;8.466;2022-10-03T09:25:20;20.30;;;16.10;;
12459;SDS011;6295;49.452;8.466;2022-10-03T09:29:37;17.30;;;13.70;;
12459;SDS011;6295;49.452;8.466;2022-10-03T09:34:02;17.77;;;14.17;;
12459;SDS011;6295;49.452;8.466;2022-10-03T09:47:26;18.47;;;15.17;;
12459;SDS011;6295;49.452;8.466;2022-10-03T09:51:42;18.80;;;14.73;;
12459;SDS011;6295;49.452;8.466;2022-10-03T09:56:12;17.67;;;13.93;;
12459;SDS011;6295;49.452;8.466;2022-10-03T10:00:57;16.00;;;12.33;;
12459;SDS011;6295;49.452;8.466;2022-10-03T10:05:21;16.40;;;11.37;;
12459;SDS011;6295;49.452;8.466;2022-10-03T10:09:57;17.33;;;11.17;;
12459;SDS011;6295;49.452;8.466;2022-10-03T10:14:42;14.87;;;10.70;;
12459;SDS011;6295;49.452;8.466;2022-10-03T10:23:41;13.43;;;10.30;;
12459;SDS011;6295;49.452;8.466;2022-10-03T10:27:54;13.30;;;8.93;;
12459;SDS011;6295;49.452;8.466;2022-10-03T10:41:47;12.33;;;7.93;;
12459;SDS011;6295;49.452;8.466;2022-10-03T10:46:23;9.23;;;7.27;;
12459;SDS011;6295;49.452;8.466;2022-10-03T10:55:38;9.70;;;7.27;;
12459;SDS011;6295;49.452;8.466;2022-10-03T11:00:09;7.33;;;6.57;;
12459;SDS011;6295;49.452;8.466;2022-10-03T11:14:02;8.10;;;3.40;;
12459;SDS011;6295;49.452;8.466;2022-10-03T11:37:35;4.47;;;3.20;;
12459;SDS011;6295;49.452;8.466;2022-10-03T11:41:46;4.70;;;3.23;;
12459;SDS011;6295;49.452;8.466;2022-10-03T11:45:53;5.07;;;3.33;;
12459;SDS011;6295;49.452;8.466;2022-10-03T11:50:04;4.53;;;2.93;;
12459;SDS011;6295;49.452;8.466;2022-10-03T11:54:26;4.03;;;3.27;;
12459;SDS011;6295;49.452;8.466;2022-10-03T11:58:32;6.63;;;3.60;;
12459;SDS011;6295;49.452;8.466;2022-10-03T12:02:56;6.60;;;3.30;;
12459;SDS011;6295;49.452;8.466;2022-10-03T12:07:03;5.27;;;2.87;;
12459;SDS011;6295;49.452;8.466;2022-10-03T12:11:32;6.60;;;2.97;;
12459;SDS011;6295;49.452;8.466;2022-10-03T12:15:39;4.93;;;2.40;;
12459;SDS011;6295;49.452;8.466;2022-10-03T12:19:49;4.70;;;2.73;;
12459;SDS011;6295;49.452;8.466;2022-10-03T12:24:11;4.30;;;2.57;;
12459;SDS011;6295;49.452;8.466;2022-10-03T12:28:29;4.93;;;3.10;;
12459;SDS011;6295;49.452;8.466;2022-10-03T12:32:40;4.73;;;2.97;;
12459;SDS011;6295;49.452;8.466;2022-10-03T12:36:46;5.13;;;3.00;;
12459;SDS011;6295;49.452;8.466;2022-10-03T12:40:55;3.87;;;3.00;;
12459;SDS011;6295;49.452;8.466;2022-10-03T12:45:01;3.43;;;2.83;;
12459;SDS011;6295;49.452;8.466;2022-10-03T12:49:10;5.40;;;3.03;;
12459;SDS011;6295;49.452;8.466;2022-10-03T12:53:27;4.77;;;3.40;;
12459;SDS011;6295;49.452;8.466;2022-10-03T12:57:42;4.80;;;3.27;;
12459;SDS011;6295;49.452;8.466;2022-10-03T13:01:58;5.47;;;3.43;;
12459;SDS011;6295;49.452;8.466;2022-10-03T13:06:17;6.43;;;3.50;;
12459;SDS011;6295;49.452;8.466;2022-10-03T13:10:30;5.57;;;3.40;;
12459;SDS011;6295;49.452;8.466;2022-10-03T13:14:46;4.43;;;3.07;;
12459;SDS011;6295;49.452;8.466;2022-10-03T13:19:31;5.70;;;3.07;;
12459;SDS011;6295;49.452;8.466;2022-10-03T13:23:44;5.17;;;3.60;;
12459;SDS011;6295;49.452;8.466;2022-10-03T13:27:48;5.53;;;3.27;;
12459;SDS011;6295;49.452;8.466;2022-10-03T13:32:04;4.87;;;3.10;;
12459;SDS011;6295;49.452;8.466;2022-10-03T13:36:17;4.87;;;3.40;;
12459;SDS011;6295;49.452;8.466;2022-10-03T13:40:21;5.00;;;3.40;;
12459;SDS011;6295;49.452;8.466;2022-10-03T13:44:33;9.50;;;3.20;;
12459;SDS011;6295;49.452;8.466;2022-10-03T13:48:37;6.20;;;3.87;;
12459;SDS011;6295;49.452;8.466;2022-10-03T13:52:44;6.40;;;3.33;;
12459;SDS011;6295;49.452;8.466;2022-10-03T13:56:53;5.77;;;3.03;;
12459;SDS011;6295;49.452;8.466;2022-10-03T14:10:18;4.93;;;2.97;;
12459;SDS011;6295;49.452;8.466;2022-10-03T14:14:40;6.67;;;3.00;;
12459;SDS011;6295;49.452;8.466;2022-10-03T14:18:55;6.97;;;3.47;;
12459;SDS011;6295;49.452;8.466;2022-10-03T14:23:10;4.93;;;3.73;;
12459;SDS011;6295;49.452;8.466;2022-10-03T14:27:28;4.03;;;2.70;;
12459;SDS011;6295;49.452;8.466;2022-10-03T14:31:44;6.53;;;3.10;;
12459;SDS011;6295;49.452;8.466;2022-10-03T14:35:59;4.93;;;2.90;;
12459;SDS011;6295;49.452;8.466;2022-10-03T14:40:14;4.90;;;2.93;;
12459;SDS011;6295;49.452;8.466;2022-10-03T14:44:21;5.00;;;2.90;;
12459;SDS011;6295;49.452;8.466;2022-10-03T14:48:29;5.43;;;2.93;;
12459;SDS011;6295;49.452;8.466;2022-10-03T14:52:39;5.63;;;2.67;;
12459;SDS011;6295;49.452;8.466;2022-10-03T14:56:47;5.47;;;2.97;;
12459;SDS011;6295;49.452;8.466;2022-10-03T15:00:59;6.37;;;2.90;;
12459;SDS011;6295;49.452;8.466;2022-10-03T15:05:06;7.70;;;2.60;;
12459;SDS011;6295;49.452;8.466;2022-10-03T15:09:14;8.40;;;3.63;;
12459;SDS011;6295;49.452;8.466;2022-10-03T15:13:18;3.37;;;2.90;;
12459;SDS011;6295;49.452;8.466;2022-10-03T15:17:27;4.90;;;2.90;;
12459;SDS011;6295;49.452;8.466;2022-10-03T15:21:32;5.63;;;3.00;;
12459;SDS011;6295;49.452;8.466;2022-10-03T15:25:35;5.80;;;2.93;;
12459;SDS011;6295;49.452;8.466;2022-10-03T15:29:40;6.73;;;3.50;;
12459;SDS011;6295;49.452;8.466;2022-10-03T15:33:47;4.43;;;2.70;;
12459;SDS011;6295;49.452;8.466;2022-10-03T15:37:53;4.20;;;3.40;;
12459;SDS011;6295;49.452;8.466;2022-10-03T15:42:00;11.00;;;5.40;;
12459;SDS011;6295;49.452;8.466;2022-10-03T15:46:11;8.10;;;5.43;;
12459;SDS011;6295;49.452;8.466;2022-10-03T15:50:16;5.60;;;4.33;;
12459;SDS011;6295;49.452;8.466;2022-10-03T15:54:23;5.63;;;3.97;;
12459;SDS011;6295;49.452;8.466;2022-10-03T15:58:29;5.10;;;3.23;;
12459;SDS011;6295;49.452;8.466;2022-10-03T16:02:34;3.73;;;2.90;;
12459;SDS011;6295;49.452;8.466;2022-10-03T16:06:43;4.43;;;2.97;;
12459;SDS011;6295;49.452;8.466;2022-10-03T16:10:51;4.20;;;2.80;;
12459;SDS011;6295;49.452;8.466;2022-10-03T16:15:09;6.33;;;3.30;;
12459;SDS011;6295;49.452;8.466;2022-10-03T16:19:24;6.60;;;3.67;;
12459;SDS011;6295;49.452;8.466;2022-10-03T16:23:33;4.83;;;3.33;;
12459;SDS011;6295;49.452;8.466;2022-10-03T16:27:39;4.97;;;3.50;;
12459;SDS011;6295;49.452;8.466;2022-10-03T16:31:53;4.33;;;3.10;;
12459;SDS011;6295;49.452;8.466;2022-10-03T16:35:59;5.60;;;3.37;;
12459;SDS011;6295;49.452;8.466;2022-10-03T16:40:04;3.73;;;3.10;;
12459;SDS011;6295;49.452;8.466;2022-10-03T16:44:16;4.30;;;3.27;;
12459;SDS011;6295;49.452;8.466;2022-10-03T16:48:21;4.17;;;3.30;;
12459;SDS011;6295;49.452;8.466;2022-10-03T16:52:45;4.70;;;3.17;;
12459;SDS011;6295;49.452;8.466;2022-10-03T16:56:51;4.53;;;3.30;;
12459;SDS011;6295;49.452;8.466;2022-10-03T17:00:59;4.13;;;3.43;;
12459;SDS011;6295;49.452;8.466;2022-10-03T17:05:04;3.40;;;3.10;;
12459;SDS011;6295;49.452;8.466;2022-10-03T17:09:13;4.13;;;3.27;;
12459;SDS011;6295;49.452;8.466;2022-10-03T17:13:23;4.03;;;3.27;;
12459;SDS011;6295;49.452;8.466;2022-10-03T17:17:31;3.57;;;3.10;;
12459;SDS011;6295;49.452;8.466;2022-10-03T17:21:45;5.17;;;3.50;;
12459;SDS011;6295;49.452;8.466;2022-10-03T17:26:04;3.57;;;3.27;;
12459;SDS011;6295;49.452;8.466;2022-10-03T17:30:17;5.53;;;3.47;;
12459;SDS011;6295;49.452;8.466;2022-10-03T17:34:23;4.77;;;3.47;;
12459;SDS011;6295;49.452;8.466;2022-10-03T17:38:34;4.37;;;3.30;;
12459;SDS011;6295;49.452;8.466;2022-10-03T17:42:44;4.43;;;3.53;;
12459;SDS011;6295;49.452;8.466;2022-10-03T17:46:54;4.07;;;3.50;;
12459;SDS011;6295;49.452;8.466;2022-10-03T17:51:13;3.47;;;3.13;;
12459;SDS011;6295;49.452;8.466;2022-10-03T17:55:39;6.17;;;3.50;;
12459;SDS011;6295;49.452;8.466;2022-10-03T17:59:49;4.23;;;3.50;;
12459;SDS011;6295;49.452;8.466;2022-10-03T18:04:01;4.50;;;3.43;;
12459;SDS011;6295;49.452;8.466;2022-10-03T18:08:06;5.10;;;3.37;;
12459;SDS011;6295;49.452;8.466;2022-10-03T18:12:18;4.67;;;3.10;;
12459;SDS011;6295;49.452;8.466;2022-10-03T18:16:25;3.90;;;3.23;;
12459;SDS011;6295;49.452;8.466;2022-10-03T18:20:43;4.03;;;3.33;;
12459;SDS011;6295;49.452;8.466;2022-10-03T18:24:51;4.43;;;3.27;;
12459;SDS011;6295;49.452;8.466;2022-10-03T18:28:58;4.50;;;3.40;;
12459;SDS011;6295;49.452;8.466;2022-10-03T18:33:11;5.20;;;3.57;;
12459;SDS011;6295;49.452;8.466;2022-10-03T18:41:50;5.53;;;3.40;;
12459;SDS011;6295;49.452;8.466;2022-10-03T18:45:59;3.63;;;3.20;;
12459;SDS011;6295;49.452;8.466;2022-10-03T18:50:12;3.50;;;3.20;;
12459;SDS011;6295;49.452;8.466;2022-10-03T18:54:23;5.63;;;3.80;;
12459;SDS011;6295;49.452;8.466;2022-10-03T18:58:36;4.60;;;3.70;;
12459;SDS011;6295;49.452;8.466;2022-10-03T19:02:44;4.77;;;3.47;;
12459;SDS011;6295;49.452;8.466;2022-10-03T19:06:52;4.63;;;3.73;;
12459;SDS011;6295;49.452;8.466;2022-10-03T19:10:57;4.30;;;3.80;;
12459;SDS011;6295;49.452;8.466;2022-10-03T19:15:08;4.40;;;3.70;;
12459;SDS011;6295;49.452;8.466;2022-10-03T19:19:21;5.23;;;3.80;;
12459;SDS011;6295;49.452;8.466;2022-10-03T19:23:30;5.47;;;3.80;;
12459;SDS011;6295;49.452;8.466;2022-10-03T19:27:40;4.93;;;3.60;;
12459;SDS011;6295;49.452;8.466;2022-10-03T19:31:57;3.87;;;3.47;;
12459;SDS011;6295;49.452;8.466;2022-10-03T19:36:03;4.37;;;3.70;;
12459;SDS011;6295;49.452;8.466;2022-10-03T19:40:13;4.50;;;3.80;;
12459;SDS011;6295;49.452;8.466;2022-10-03T19:44:26;4.93;;;4.07;;
12459;SDS011;6295;49.452;8.466;2022-10-03T19:48:32;5.33;;;4.60;;
12459;SDS011;6295;49.452;8.466;2022-10-03T19:52:36;5.47;;;4.03;;
12459;SDS011;6295;49.452;8.466;2022-10-03T19:56:40;5.33;;;4.10;;
12459;SDS011;6295;49.452;8.466;2022-10-03T20:00:48;4.87;;;3.93;;
12459;SDS011;6295;49.452;8.466;2022-10-03T20:04:54;4.40;;;4.00;;
12459;SDS011;6295;49.452;8.466;2022-10-03T20:08:58;5.97;;;4.30;;
12459;SDS011;6295;49.452;8.466;2022-10-03T20:13:02;5.30;;;4.40;;
12459;SDS011;6295;49.452;8.466;2022-10-03T20:17:08;4.87;;;4.30;;
12459;SDS011;6295;49.452;8.466;2022-10-03T20:21:16;4.97;;;4.30;;
12459;SDS011;6295;49.452;8.466;2022-10-03T20:25:21;4.30;;;3.90;;
12459;SDS011;6295;49.452;8.466;2022-10-03T20:29:29;6.30;;;4.57;;
12459;SDS011;6295;49.452;8.466;2022-10-03T20:33:33;7.50;;;4.67;;
12459;SDS011;6295;49.452;8.466;2022-10-03T20:37:42;5.17;;;4.67;;
12459;SDS011;6295;49.452;8.466;2022-10-03T20:41:54;6.87;;;4.87;;
12459;SDS011;6295;49.452;8.466;2022-10-03T20:46:03;7.40;;;5.10;;
12459;SDS011;6295;49.452;8.466;2022-10-03T20:50:17;7.73;;;5.23;;
12459;SDS011;6295;49.452;8.466;2022-10-03T20:54:27;6.27;;;4.77;;
12459;SDS011;6295;49.452;8.466;2022-10-03T20:58:37;6.63;;;4.97;;
12459;SDS011;6295;49.452;8.466;2022-10-03T21:02:43;6.23;;;5.33;;
12459;SDS011;6295;49.452;8.466;2022-10-03T21:06:51;6.47;;;5.23;;
12459;SDS011;6295;49.452;8.466;2022-10-03T21:11:01;7.13;;;5.30;;
12459;SDS011;6295;49.452;8.466;2022-10-03T21:15:13;7.43;;;5.60;;
12459;SDS011;6295;49.452;8.466;2022-10-03T21:19:28;6.30;;;5.20;;
12459;SDS011;6295;49.452;8.466;2022-10-03T21:23:31;7.47;;;5.57;;
12459;SDS011;6295;49.452;8.466;2022-10-03T21:27:41;6.93;;;5.50;;
12459;SDS011;6295;49.452;8.466;2022-10-03T21:31:49;6.97;;;5.50;;
12459;SDS011;6295;49.452;8.466;2022-10-03T21:36:03;8.03;;;5.77;;
12459;SDS011;6295;49.452;8.466;2022-10-03T21:40:16;7.37;;;5.67;;
12459;SDS011;6295;49.452;8.466;2022-10-03T21:44:38;7.83;;;6.00;;
12459;SDS011;6295;49.452;8.466;2022-10-03T21:48:48;8.10;;;5.80;;
12459;SDS011;6295;49.452;8.466;2022-10-03T21:53:12;9.77;;;6.30;;
12459;SDS011;6295;49.452;8.466;2022-10-03T21:57:21;8.13;;;6.03;;
12459;SDS011;6295;49.452;8.466;2022-10-03T22:01:34;10.20;;;6.90;;
12459;SDS011;6295;49.452;8.466;2022-10-03T22:05:42;9.50;;;6.83;;
12459;SDS011;6295;49.452;8.466;2022-10-03T22:09:53;10.60;;;7.90;;
12459;SDS011;6295;49.452;8.466;2022-10-03T22:13:58;13.00;;;8.20;;
12459;SDS011;6295;49.452;8.466;2022-10-03T22:18:09;9.67;;;7.30;;
12459;SDS011;6295;49.452;8.466;2022-10-03T22:22:14;10.43;;;7.20;;
12459;SDS011;6295;49.452;8.466;2022-10-03T22:26:23;9.93;;;7.60;;
12459;SDS011;6295;49.452;8.466;2022-10-03T22:30:36;9.73;;;7.53;;
12459;SDS011;6295;49.452;8.466;2022-10-03T22:34:47;8.67;;;7.00;;
12459;SDS011;6295;49.452;8.466;2022-10-03T22:38:54;9.77;;;7.20;;
12459;SDS011;6295;49.452;8.466;2022-10-03T22:42:57;10.30;;;6.97;;
12459;SDS011;6295;49.452;8.466;2022-10-03T22:47:01;9.67;;;7.70;;
12459;SDS011;6295;49.452;8.466;2022-10-03T22:51:10;8.33;;;6.60;;
12459;SDS011;6295;49.452;8.466;2022-10-03T22:55:15;9.70;;;7.03;;
12459;SDS011;6295;49.452;8.466;2022-10-03T22:59:21;11.07;;;7.17;;
12459;SDS011;6295;49.452;8.466;2022-10-03T23:03:27;9.53;;;7.13;;
12459;SDS011;6295;49.452;8.466;2022-10-03T23:07:35;9.33;;;6.87;;
12459;SDS011;6295;49.452;8.466;2022-10-03T23:11:57;9.60;;;7.03;;
12459;SDS011;6295;49.452;8.466;2022-10-03T23:16:02;11.00;;;8.10;;
12459;SDS011;6295;49.452;8.466;2022-10-03T23:20:12;11.03;;;8.00;;
12459;SDS011;6295;49.452;8.466;2022-10-03T23:24:22;10.57;;;8.00;;
12459;SDS011;6295;49.452;8.466;2022-10-03T23:28:29;10.77;;;8.03;;
12459;SDS011;6295;49.452;8.466;2022-10-03T23:32:50;11.50;;;8.37;;
12459;SDS011;6295;49.452;8.466;2022-10-03T23:36:57;13.57;;;8.00;;
12459;SDS011;6295;49.452;8.466;2022-10-03T23:41:02;10.90;;;7.70;;
12459;SDS011;6295;49.452;8.466;2022-10-03T23:45:09;9.63;;;7.23;;
12459;SDS011;6295;49.452;8.466;2022-10-03T23:49:12;10.80;;;7.30;;
12459;SDS011;6295;49.452;8.466;2022-10-03T23:53:17;11.50;;;7.60;;
12459;SDS011;6295;49.452;8.466;2022-10-03T23:57:21;11.77;;;7.00;;
